Time;durP1;ratioP1;P1;durP2;ratioP2;P2;SDS_P1;SDS_P2;PMS_P1;PMS_P2;Temp;Humidity;BMP_temperature;BMP_pressure;BME280_temperature;BME280_humidity;BME280_pressure;Samples;Min_cycle;Max_cycle;Signal;HPM_P1;HPM_P2
2022/09/28 00:00:56;;;;;;;1.33;1.20;;;;;;;8.55;100.00;96494.91;5104859;28;20627;-65
2022/09/28 00:03:22;;;;;;;2.33;1.20;;;;;;;8.55;100.00;96495.75;5107717;28;20322;-65
2022/09/28 00:05:49;;;;;;;2.17;1.10;;;;;;;8.55;100.00;96481.75;5104583;28;20604;-66
2022/09/28 00:08:17;;;;;;;1.77;1.10;;;;;;;8.58;100.00;96479.66;5113166;28;20266;-65
2022/09/28 00:10:45;;;;;;;2.50;1.10;;;;;;;8.62;100.00;96464.47;5107239;28;20257;-65
2022/09/28 00:13:11;;;;;;;1.10;1.00;;;;;;;8.60;100.00;96466.38;5107511;28;20226;-65
2022/09/28 00:15:38;;;;;;;2.27;1.57;;;;;;;8.61;100.00;96458.34;5110653;28;20570;-64
2022/09/28 00:18:05;;;;;;;1.20;1.10;;;;;;;8.64;100.00;96455.44;5100899;28;20266;-66
2022/09/28 00:20:31;;;;;;;1.70;1.30;;;;;;;8.63;100.00;96445.88;5110990;28;20258;-65
2022/09/28 00:22:58;;;;;;;2.10;1.60;;;;;;;8.65;100.00;96443.13;5107195;28;20331;-66
2022/09/28 00:25:26;;;;;;;1.50;1.10;;;;;;;8.60;100.00;96440.91;5109753;28;20258;-66
2022/09/28 00:27:53;;;;;;;1.20;1.10;;;;;;;8.65;100.00;96437.84;5102341;28;20231;-66
2022/09/28 00:30:20;;;;;;;1.10;1.00;;;;;;;8.67;100.00;96430.63;5111124;28;20323;-65
2022/09/28 00:32:46;;;;;;;1.33;1.00;;;;;;;8.67;100.00;96423.59;5105381;28;20276;-65
2022/09/28 00:35:13;;;;;;;1.37;1.27;;;;;;;8.65;100.00;96427.31;5105458;28;20265;-65
2022/09/28 00:37:39;;;;;;;1.67;0.90;;;;;;;8.68;100.00;96417.34;5112484;28;20262;-66
2022/09/28 00:40:07;;;;;;;1.47;1.20;;;;;;;8.64;100.00;96409.88;5102891;28;20276;-66
2022/09/28 00:42:35;;;;;;;2.37;1.10;;;;;;;8.67;100.00;96399.03;5106014;28;20618;-65
2022/09/28 00:45:02;;;;;;;1.30;1.20;;;;;;;8.70;100.00;96398.78;5108631;28;20653;-65
2022/09/28 00:47:42;;;;;;;1.00;0.90;;;;;;;8.76;100.00;96400.88;5102071;28;20280;-64
2022/09/28 00:50:14;;;;;;;2.90;1.00;;;;;;;8.75;100.00;96391.31;5109493;28;20261;-66
2022/09/28 00:52:47;;;;;;;1.73;1.43;;;;;;;8.75;100.00;96386.03;5107009;28;20257;-65
2022/09/28 00:55:19;;;;;;;1.80;1.20;;;;;;;8.74;100.00;96379.94;5111797;28;20257;-65
2022/09/28 00:57:54;;;;;;;2.73;1.23;;;;;;;8.76;100.00;96377.16;5100852;28;20530;-65
2022/09/28 01:00:20;;;;;;;1.30;1.20;;;;;;;8.78;100.00;96375.22;5105131;28;20508;-65
2022/09/28 01:02:48;;;;;;;3.17;1.40;;;;;;;8.79;100.00;96366.34;5104650;28;20275;-64
2022/09/28 01:05:17;;;;;;;2.10;1.50;;;;;;;8.79;100.00;96361.06;5111930;28;20255;-65
2022/09/28 01:07:46;;;;;;;3.40;1.40;;;;;;;8.80;100.00;96349.56;5103655;28;20292;-65
2022/09/28 01:10:14;;;;;;;2.97;1.50;;;;;;;8.81;100.00;96348.63;5104513;28;20258;-65
2022/09/28 01:12:40;;;;;;;2.40;1.37;;;;;;;8.84;100.00;96336.00;5109418;28;20625;-65
2022/09/28 01:15:09;;;;;;;2.17;1.73;;;;;;;8.84;100.00;96335.16;5101750;28;20258;-65
2022/09/28 01:17:47;;;;;;;2.97;1.77;;;;;;;8.85;100.00;96328.91;5109624;28;20717;-65
2022/09/28 01:20:41;;;;;;;1.97;1.33;;;;;;;8.87;100.00;96324.34;5106738;28;20232;-65
2022/09/28 01:23:36;;;;;;;2.00;1.60;;;;;;;8.91;100.00;96323.94;5101563;28;20318;-65
2022/09/28 01:26:46;;;;;;;1.60;1.50;;;;;;;8.93;100.00;96321.16;5114168;28;20263;-65
2022/09/28 01:29:22;;;;;;;3.10;1.50;;;;;;;8.94;100.00;96307.03;5100368;28;20604;-64
2022/09/28 01:31:52;;;;;;;2.73;1.40;;;;;;;8.93;100.00;96295.63;5105826;28;20259;-65
2022/09/28 01:34:26;;;;;;;2.00;1.63;;;;;;;8.91;100.00;96280.94;5109168;28;20314;-65
2022/09/28 01:36:56;;;;;;;1.90;1.53;;;;;;;8.93;100.00;96285.09;5100129;28;20234;-65
2022/09/28 01:39:28;;;;;;;1.80;1.50;;;;;;;8.90;100.00;96281.91;5107904;28;20223;-65
2022/09/28 01:42:00;;;;;;;1.90;1.50;;;;;;;8.89;100.00;96273.19;5099837;28;20262;-65
2022/09/28 01:44:30;;;;;;;3.27;1.77;;;;;;;8.88;100.00;96266.25;5105631;28;20622;-67
2022/09/28 01:47:03;;;;;;;2.90;1.40;;;;;;;8.91;100.00;96263.34;5101785;28;20265;-66
2022/09/28 01:49:35;;;;;;;2.70;1.30;;;;;;;8.94;100.00;96264.88;5105466;28;20222;-66
2022/09/28 01:52:06;;;;;;;1.63;1.53;;;;;;;8.97;100.00;96259.31;5108676;28;20256;-66
2022/09/28 01:54:38;;;;;;;2.50;1.50;;;;;;;9.00;100.00;96245.88;5099651;28;20250;-64
2022/09/28 01:57:12;;;;;;;1.70;1.50;;;;;;;8.99;100.00;96242.38;5099622;28;20266;-63
2022/09/28 01:59:43;;;;;;;1.87;1.33;;;;;;;8.95;100.00;96234.91;5106875;28;20268;-61
2022/09/28 02:02:15;;;;;;;1.53;1.20;;;;;;;8.99;100.00;96233.66;5098964;28;20283;-61
2022/09/28 02:04:47;;;;;;;1.27;1.13;;;;;;;9.00;100.00;96228.22;5110001;28;20272;-62
2022/09/28 02:07:19;;;;;;;2.47;1.17;;;;;;;8.98;100.00;96226.72;5105404;28;20685;-63
2022/09/28 02:09:50;;;;;;;2.53;1.10;;;;;;;9.03;100.00;96216.59;5109013;28;20257;-62
2022/09/28 02:12:23;;;;;;;1.57;1.27;;;;;;;8.99;100.00;96216.03;5100685;28;20550;-64
2022/09/28 02:14:52;;;;;;;1.60;1.07;;;;;;;9.05;100.00;96220.75;5107271;28;20280;-64
2022/09/28 02:17:19;;;;;;;1.83;1.30;;;;;;;9.06;100.00;96209.22;5106387;28;20548;-64
2022/09/28 02:19:45;;;;;;;2.37;1.23;;;;;;;9.09;100.00;96210.75;5101212;28;20269;-64
2022/09/28 02:22:24;;;;;;;1.87;1.03;;;;;;;9.17;100.00;96202.97;5110769;28;20603;-64
2022/09/28 02:24:55;;;;;;;3.73;1.30;;;;;;;9.17;100.00;96208.25;5103389;28;20262;-64
2022/09/28 02:27:33;;;;;;;7.60;3.03;;;;;;;9.21;100.00;96199.88;5101683;28;20308;-62
2022/09/28 02:30:00;;;;;;;3.43;1.60;;;;;;;9.21;100.00;96199.06;5110800;28;20273;-63
2022/09/28 02:32:29;;;;;;;3.20;1.40;;;;;;;9.28;100.00;96197.50;5102284;28;20578;-63
2022/09/28 02:34:56;;;;;;;4.63;1.50;;;;;;;9.29;100.00;96196.50;5105014;28;20269;-62
2022/09/28 02:37:23;;;;;;;3.33;1.30;;;;;;;9.32;100.00;96190.97;5109377;28;20266;-63
2022/09/28 02:39:49;;;;;;;3.10;1.37;;;;;;;9.31;100.00;96194.59;5100304;28;20265;-64
2022/09/28 02:42:22;;;;;;;4.57;1.53;;;;;;;9.41;100.00;96190.06;5101726;28;20270;-64
2022/09/28 02:45:10;;;;;;;3.63;1.27;;;;;;;9.40;100.00;96193.69;5105019;28;20223;-64
2022/09/28 02:47:53;;;;;;;2.83;1.50;;;;;;;9.46;100.00;96188.69;5110627;28;20260;-65
2022/09/28 02:50:32;;;;;;;2.10;1.40;;;;;;;9.49;100.00;96187.56;5102430;28;20263;-64
2022/09/28 02:53:15;;;;;;;4.07;1.43;;;;;;;9.49;100.00;96187.56;5102379;28;20218;-65
2022/09/28 02:55:55;;;;;;;3.60;1.30;;;;;;;9.51;100.00;96180.31;5099152;28;20265;-65
2022/09/28 02:58:33;;;;;;;5.27;1.40;;;;;;;9.49;100.00;96174.38;5104998;28;20259;-64
2022/09/28 03:01:10;;;;;;;5.13;1.50;;;;;;;9.54;100.00;96177.41;5109597;28;20266;-63
2022/09/28 03:03:45;;;;;;;3.77;1.30;;;;;;;9.51;100.00;96165.34;5102844;28;20616;-63
2022/09/28 03:06:17;;;;;;;3.50;1.40;;;;;;;9.50;100.00;96168.13;5108680;28;20279;-64
2022/09/28 03:08:49;;;;;;;3.07;1.20;;;;;;;9.51;100.00;96170.63;5112217;28;20263;-64
2022/09/28 03:11:21;;;;;;;6.03;1.50;;;;;;;9.55;100.00;96163.25;5103984;28;20674;-64
2022/09/28 03:13:48;;;;;;;4.03;1.40;;;;;;;9.54;100.00;96156.31;5110649;28;20308;-64
2022/09/28 03:16:19;;;;;;;2.87;1.40;;;;;;;9.47;100.00;96148.16;5109056;28;20262;-64
2022/09/28 03:18:46;;;;;;;4.27;1.93;;;;;;;9.50;100.00;96147.03;5102472;28;20616;-64
2022/09/28 03:21:14;;;;;;;3.67;1.67;;;;;;;9.46;100.00;96141.22;5113927;28;20262;-65
2022/09/28 03:23:42;;;;;;;3.00;1.60;;;;;;;9.46;100.00;96145.66;5105497;28;20588;-65
2022/09/28 03:26:11;;;;;;;2.77;1.17;;;;;;;9.50;100.00;96139.97;5109404;28;20591;-65
2022/09/28 03:28:38;;;;;;;2.60;1.57;;;;;;;9.49;100.00;96145.38;5103906;28;20261;-65
2022/09/28 03:31:04;;;;;;;4.30;1.60;;;;;;;9.58;100.00;96149.75;5108314;28;20261;-65
2022/09/28 03:33:32;;;;;;;3.67;1.20;;;;;;;9.58;100.00;96149.75;5105309;28;20254;-65
2022/09/28 03:35:59;;;;;;;1.30;1.20;;;;;;;9.60;100.00;96161.00;5109186;28;20258;-65
2022/09/28 03:38:26;;;;;;;2.83;1.20;;;;;;;9.63;100.00;96163.31;5103848;28;20258;-65
2022/09/28 03:40:54;;;;;;;5.77;1.50;;;;;;;9.60;100.00;96193.47;5113538;28;20308;-64
2022/09/28 03:43:21;;;;;;;3.07;1.40;;;;;;;9.67;100.00;96209.53;5105065;28;20254;-65
2022/09/28 03:45:52;;;;;;;2.83;1.40;;;;;;;9.64;100.00;96215.09;5106214;28;20298;-63
2022/09/28 03:48:22;;;;;;;1.70;0.97;;;;;;;9.53;100.00;96210.00;5113446;28;20228;-66
2022/09/28 03:50:52;;;;;;;1.80;0.77;;;;;;;9.46;100.00;96208.94;5112845;28;20222;-64
2022/09/28 03:53:19;;;;;;;1.80;1.00;;;;;;;9.43;100.00;96193.41;5106490;28;20253;-65
2022/09/28 03:55:46;;;;;;;3.63;1.00;;;;;;;9.44;100.00;96200.34;5104022;28;20229;-65
2022/09/28 03:58:12;;;;;;;0.83;0.73;;;;;;;9.41;100.00;96208.53;5107895;28;20254;-65
2022/09/28 04:00:39;;;;;;;2.10;0.70;;;;;;;9.42;100.00;96211.03;5103740;28;20540;-66
2022/09/28 04:03:05;;;;;;;1.20;0.80;;;;;;;9.42;100.00;96204.94;5108677;28;20282;-67
2022/09/28 04:05:32;;;;;;;1.37;0.73;;;;;;;9.43;100.00;96198.69;5109205;28;20270;-65
2022/09/28 04:08:00;;;;;;;2.23;0.90;;;;;;;9.41;100.00;96196.19;5103207;28;20623;-67
2022/09/28 04:10:27;;;;;;;2.50;0.90;;;;;;;9.42;100.00;96189.94;5101757;28;20266;-67
2022/09/28 04:12:54;;;;;;;4.00;1.00;;;;;;;9.41;100.00;96193.56;5105837;28;20268;-65
2022/09/28 04:15:21;;;;;;;3.07;0.90;;;;;;;9.40;100.00;96193.69;5108835;28;20226;-66
2022/09/28 04:17:48;;;;;;;1.30;0.90;;;;;;;9.41;100.00;96195.34;5103074;28;20255;-66
2022/09/28 04:20:15;;;;;;;2.10;1.00;;;;;;;9.37;100.00;96205.34;5112954;28;20229;-64
2022/09/28 04:22:42;;;;;;;2.60;0.87;;;;;;;9.35;100.00;96204.69;5104421;28;20257;-68
2022/09/28 04:25:10;;;;;;;3.07;0.97;;;;;;;9.32;100.00;96196.25;5107109;28;20325;-67
2022/09/28 04:30:22;;;;;;;1.30;0.90;;;;;;;9.23;100.00;96199.75;5101416;28;20221;-63
2022/09/28 04:32:48;;;;;;;12.73;1.40;;;;;;;9.24;100.00;96201.41;5107253;28;20311;-63
2022/09/28 04:35:15;;;;;;;3.83;1.00;;;;;;;9.27;100.00;96194.03;5110468;28;20270;-67
2022/09/28 04:37:42;;;;;;;2.13;1.00;;;;;;;9.25;100.00;96195.16;5100722;28;20269;-66
2022/09/28 04:40:10;;;;;;;2.60;1.20;;;;;;;9.21;100.00;96199.06;5110679;28;20269;-66
2022/09/28 04:42:37;;;;;;;1.17;1.07;;;;;;;9.21;100.00;96204.31;5105961;28;20294;-64
2022/09/28 04:45:05;;;;;;;1.73;0.93;;;;;;;9.22;100.00;96205.97;5104637;28;20282;-65
2022/09/28 04:47:31;;;;;;;2.03;0.90;;;;;;;9.21;100.00;96199.88;5112425;28;20221;-67
2022/09/28 04:49:58;;;;;;;1.20;0.90;;;;;;;9.23;100.00;96202.38;5103976;28;20584;-65
2022/09/28 04:52:25;;;;;;;1.70;0.90;;;;;;;9.21;100.00;96207.81;5106749;28;20259;-64
2022/09/28 04:54:52;;;;;;;3.40;1.17;;;;;;;9.23;100.00;96207.66;5101588;28;20251;-62
2022/09/28 04:57:20;;;;;;;3.37;1.20;;;;;;;9.27;100.00;96212.50;5105062;28;20271;-61
2022/09/28 04:59:46;;;;;;;2.00;1.10;;;;;;;9.26;100.00;96216.09;5110602;28;20257;-68
2022/09/28 05:02:13;;;;;;;1.43;1.30;;;;;;;9.22;100.00;96211.25;5106763;28;20263;-68
2022/09/28 05:04:41;;;;;;;1.10;0.97;;;;;;;9.20;100.00;96213.22;5107451;28;20279;-68
2022/09/28 05:07:08;;;;;;;3.40;1.57;;;;;;;9.20;100.00;96210.56;5101986;28;20246;-68
2022/09/28 05:09:34;;;;;;;2.43;1.23;;;;;;;9.17;100.00;96208.25;5110610;28;20230;-66
2022/09/28 05:12:01;;;;;;;1.90;1.40;;;;;;;9.16;100.00;96219.72;5101337;28;20662;-66
2022/09/28 05:14:29;;;;;;;2.33;1.00;;;;;;;9.18;100.00;96217.81;5104957;28;20266;-66
2022/09/28 05:16:56;;;;;;;2.50;1.20;;;;;;;9.15;100.00;96205.75;5111863;28;20277;-66
2022/09/28 05:19:22;;;;;;;2.23;1.03;;;;;;;9.17;100.00;96213.50;5102837;28;20258;-69
2022/09/28 05:21:49;;;;;;;3.20;1.30;;;;;;;9.17;100.00;96208.25;5106577;28;20262;-64
2022/09/28 05:24:15;;;;;;;1.90;1.20;;;;;;;9.17;100.00;96211.69;5107782;28;20326;-66
2022/09/28 05:26:42;;;;;;;1.30;0.87;;;;;;;9.20;100.00;96218.47;5100744;28;20256;-66
2022/09/28 05:29:09;;;;;;;1.77;1.17;;;;;;;9.23;100.00;96218.22;5109365;28;20570;-64
2022/09/28 05:31:37;;;;;;;1.83;1.00;;;;;;;9.22;100.00;96221.78;5103503;28;20259;-64
2022/09/28 05:34:03;;;;;;;1.77;0.90;;;;;;;9.21;100.00;96220.13;5105313;28;20251;-66
2022/09/28 05:36:31;;;;;;;2.47;1.50;;;;;;;9.17;100.00;96216.97;5111516;28;20269;-65
2022/09/28 05:38:58;;;;;;;5.90;1.43;;;;;;;9.17;100.00;96218.78;5101766;28;20241;-66
2022/09/28 05:41:24;;;;;;;2.20;1.27;;;;;;;9.16;100.00;96206.56;5107075;28;20260;-66
2022/09/28 05:43:51;;;;;;;1.90;1.40;;;;;;;9.13;100.00;96207.66;5107038;28;20613;-66
2022/09/28 05:46:18;;;;;;;2.23;1.20;;;;;;;9.14;100.00;96205.88;5101403;28;20226;-65
2022/09/28 05:48:47;;;;;;;1.57;1.30;;;;;;;9.11;100.00;96214.09;5099677;28;20223;-65
2022/09/28 05:51:13;;;;;;;2.13;1.30;;;;;;;9.11;100.00;96216.72;5105788;28;20267;-63
2022/09/28 05:53:40;;;;;;;3.30;1.60;;;;;;;9.08;100.00;96214.34;5104768;28;20299;-67
2022/09/28 05:56:06;;;;;;;2.10;1.40;;;;;;;9.12;100.00;96226.28;5103508;28;20260;-66
2022/09/28 05:58:33;;;;;;;1.90;1.30;;;;;;;9.11;100.00;96229.91;5100889;28;20262;-65
2022/09/28 06:01:00;;;;;;;3.63;1.50;;;;;;;9.13;100.00;96225.31;5107396;28;20262;-65
2022/09/28 06:03:27;;;;;;;2.20;1.53;;;;;;;9.16;100.00;96232.91;5105618;28;20286;-65
2022/09/28 06:05:55;;;;;;;2.80;1.73;;;;;;;9.14;100.00;96229.59;5108362;28;20309;-66
2022/09/28 06:08:22;;;;;;;1.60;1.50;;;;;;;9.15;100.00;96236.53;5099376;28;20260;-65
2022/09/28 06:10:48;;;;;;;3.13;1.80;;;;;;;9.12;100.00;96236.81;5105961;28;20260;-64
2022/09/28 06:13:15;;;;;;;3.43;1.70;;;;;;;9.18;100.00;96233.63;5104119;28;20270;-63
2022/09/28 06:15:43;;;;;;;3.67;1.60;;;;;;;9.24;100.00;96235.69;5100169;28;20263;-65
2022/09/28 06:18:13;;;;;;;4.63;2.20;;;;;;;9.30;100.00;96240.38;5109684;28;20552;-69
2022/09/28 06:20:40;;;;;;;3.30;1.60;;;;;;;9.34;100.00;96232.03;5100899;28;20224;-67
2022/09/28 06:23:09;;;;;;;2.73;1.40;;;;;;;9.32;100.00;96241.06;5102744;28;20648;-64
2022/09/28 06:25:35;;;;;;;1.87;1.60;;;;;;;9.37;100.00;96246.72;5109676;28;20708;-63
2022/09/28 06:28:04;;;;;;;3.40;2.03;;;;;;;9.40;100.00;96252.53;5099298;28;20264;-62
2022/09/28 06:30:33;;;;;;;1.97;1.80;;;;;;;9.41;100.00;96251.56;5105634;28;20258;-61
2022/09/28 06:33:00;;;;;;;2.53;1.60;;;;;;;9.44;100.00;96253.91;5098063;28;20318;-61
2022/09/28 06:35:29;;;;;;;2.93;1.80;;;;;;;9.47;100.00;96250.13;5103705;28;20733;-61
2022/09/28 06:37:56;;;;;;;4.00;1.90;;;;;;;9.49;100.00;96266.66;5102454;28;20650;-61
2022/09/28 06:40:24;;;;;;;2.20;2.00;;;;;;;9.51;100.00;96267.34;5109466;28;20658;-61
2022/09/28 06:42:58;;;;;;;2.87;1.73;;;;;;;9.49;100.00;96264.84;5109154;28;20265;-67
2022/09/28 06:45:25;;;;;;;3.53;1.60;;;;;;;9.53;100.00;96268.00;5103278;28;20282;-64
2022/09/28 06:47:57;;;;;;;4.17;2.07;;;;;;;9.53;100.00;96268.00;5110772;28;20257;-63
2022/09/28 06:50:24;;;;;;;4.00;2.30;;;;;;;9.56;100.00;96278.28;5107957;28;20251;-63
2022/09/28 06:52:52;;;;;;;5.67;2.57;;;;;;;9.61;100.00;96281.34;5110126;28;20263;-61
2022/09/28 06:55:19;;;;;;;7.20;3.00;;;;;;;9.66;100.00;96281.72;5107748;28;20643;-61
2022/09/28 06:57:48;;;;;;;6.10;2.73;;;;;;;9.66;100.00;96279.91;5104362;28;20598;-61
2022/09/28 07:00:15;;;;;;;5.93;3.20;;;;;;;9.70;100.00;96288.34;5107709;28;20268;-60
2022/09/28 07:02:42;;;;;;;7.57;2.73;;;;;;;9.60;100.00;96287.59;5110183;28;20268;-61
2022/09/28 07:05:12;;;;;;;3.93;2.50;;;;;;;9.61;100.00;96291.88;5102818;28;20327;-61
2022/09/28 07:07:41;;;;;;;4.20;2.80;;;;;;;9.72;100.00;96296.97;5111195;28;20317;-61
2022/09/28 07:10:10;;;;;;;6.20;3.27;;;;;;;9.78;100.00;96299.03;5106388;28;20229;-61
2022/09/28 07:12:37;;;;;;;2.93;2.63;;;;;;;9.84;100.00;96298.44;5104990;28;20260;-61
2022/09/28 07:15:06;;;;;;;4.97;2.60;;;;;;;9.92;100.00;96301.19;5111266;28;20281;-61
2022/09/28 07:17:33;;;;;;;4.83;3.07;;;;;;;9.97;100.00;96298.94;5104186;28;20303;-61
2022/09/28 07:20:01;;;;;;;5.40;2.90;;;;;;;10.05;100.00;96301.69;5107256;28;20228;-61
2022/09/28 07:22:28;;;;;;;4.63;3.10;;;;;;;10.12;100.00;96313.31;5110715;28;20222;-62
2022/09/28 07:24:56;;;;;;;6.50;3.30;;;;;;;10.14;100.00;96329.84;5102438;28;20603;-61
2022/09/28 07:27:23;;;;;;;4.50;3.20;;;;;;;10.13;100.00;96321.09;5110181;28;20241;-61
2022/09/28 07:29:50;;;;;;;5.93;3.13;;;;;;;10.18;100.00;96323.31;5106227;28;20259;-62
2022/09/28 07:32:18;;;;;;;5.97;3.20;;;;;;;10.13;100.00;96330.81;5104607;28;20281;-63
2022/09/28 07:34:44;;;;;;;6.50;3.10;;;;;;;10.08;100.00;96333.06;5110787;28;20301;-65
2022/09/28 07:37:12;;;;;;;4.93;2.93;;;;;;;10.11;100.00;96338.06;5101308;28;20614;-63
2022/09/28 07:42:19;;;;;;;6.00;3.13;;;;;;;10.20;100.00;96342.44;5112353;28;20252;-62
2022/09/28 07:44:46;;;;;;;4.47;3.10;;;;;;;10.28;100.00;96356.56;5109695;28;20317;-63
2022/09/28 07:47:12;;;;;;;3.20;2.67;;;;;;;10.34;100.00;96356.00;5110364;28;20265;-63
2022/09/28 07:49:40;;;;;;;4.80;3.10;;;;;;;10.35;100.00;96357.66;5099023;28;20623;-63
2022/09/28 07:52:07;;;;;;;4.00;2.90;;;;;;;10.37;100.00;96360.16;5099755;28;20226;-63
2022/09/28 07:54:35;;;;;;;6.13;3.17;;;;;;;10.38;100.00;96356.53;5099749;28;20226;-63
2022/09/28 07:57:01;;;;;;;4.70;2.70;;;;;;;10.38;100.00;96361.81;5108550;28;20276;-63
2022/09/28 07:59:29;;;;;;;5.00;3.57;;;;;;;10.45;100.00;96353.16;5099562;28;20598;-64
2022/09/28 08:01:55;;;;;;;6.90;3.50;;;;;;;10.46;100.00;96364.56;5099734;28;20229;-66
2022/09/28 08:04:24;;;;;;;6.20;3.30;;;;;;;10.42;100.00;96373.75;5099298;28;20325;-64
2022/09/28 08:06:52;;;;;;;8.57;3.30;;;;;;;10.40;100.00;96375.72;5100629;28;20673;-64
2022/09/28 08:09:18;;;;;;;6.67;3.20;;;;;;;10.33;100.00;96379.94;5097370;28;20265;-66
2022/09/28 08:11:45;;;;;;;6.63;3.00;;;;;;;10.36;100.00;96382.25;5099826;28;20259;-64
2022/09/28 08:14:11;;;;;;;7.27;3.47;;;;;;;10.46;100.00;96377.75;5101312;28;20571;-64
2022/09/28 08:16:38;;;;;;;11.40;3.73;;;;;;;10.66;100.00;96389.88;5099542;28;20265;-64
2022/09/28 08:19:05;;;;;;;4.43;2.80;;;;;;;10.88;100.00;96384.16;5099819;28;20556;-64
2022/09/28 08:21:46;;;;;;;4.17;2.77;;;;;;;10.96;100.00;96384.25;5098666;28;20261;-65
2022/09/28 08:24:15;;;;;;;4.00;2.87;;;;;;;10.99;100.00;96389.22;5101915;28;20669;-63
2022/09/28 08:26:42;;;;;;;4.77;2.77;;;;;;;11.14;100.00;96398.28;5098024;28;20372;-64
2022/09/28 08:29:10;;;;;;;5.53;2.77;;;;;;;11.28;100.00;96387.16;5098756;28;20647;-64
2022/09/28 08:31:36;;;;;;;4.50;2.63;;;;;;;11.44;100.00;96397.91;5097612;28;20302;-64
2022/09/28 08:34:03;;;;;;;3.90;2.53;;;;;;;11.51;100.00;96397.13;5097625;28;20614;-65
2022/09/28 08:36:30;;;;;;;2.57;2.13;;;;;;;11.45;100.00;96402.19;5098665;28;20299;-65
2022/09/28 08:38:56;;;;;;;5.03;3.23;;;;;;;11.39;100.00;96406.31;5098372;28;20313;-65
2022/09/28 08:41:35;;;;;;;4.30;2.13;;;;;;;11.38;100.00;96409.09;5096660;28;20676;-65
2022/09/28 08:44:22;;;;;;;3.70;2.30;;;;;;;11.33;100.00;96408.72;5101292;28;20265;-66
2022/09/28 08:46:54;;;;;;;4.27;2.13;;;;;;;11.29;100.00;96405.53;5097954;28;20219;-65
2022/09/28 08:49:28;;;;;;;3.77;2.33;;;;;;;11.24;100.00;96417.53;5097261;28;20304;-65
2022/09/28 08:51:59;;;;;;;4.57;2.60;;;;;;;11.34;100.00;96426.22;5101491;28;20668;-64
2022/09/28 08:54:36;;;;;;;5.17;2.70;;;;;;;11.44;100.00;96419.88;5098865;28;20252;-65
2022/09/28 08:57:11;;;;;;;4.03;2.33;;;;;;;11.52;100.00;96425.25;5104857;28;20235;-65
2022/09/28 08:59:46;;;;;;;4.83;2.37;;;;;;;11.66;100.00;96414.16;5104996;28;20256;-65
2022/09/28 09:02:16;;;;;;;3.17;1.90;;;;;;;11.70;100.00;96428.75;5103236;28;20227;-65
2022/09/28 09:04:43;;;;;;;5.97;2.70;;;;;;;11.74;100.00;96435.34;5106532;28;20336;-65
2022/09/28 09:07:27;;;;;;;4.00;2.80;;;;;;;11.88;100.00;96433.97;5107838;28;20598;-65
2022/09/28 09:10:03;;;;;;;3.70;2.37;;;;;;;11.94;100.00;96430.72;5101701;28;20224;-65
2022/09/28 09:12:40;;;;;;;4.50;2.53;;;;;;;12.02;100.00;96436.06;5102699;28;20271;-66
2022/09/28 09:15:23;;;;;;;4.47;2.40;;;;;;;12.09;100.00;96437.94;5103631;28;20257;-65
2022/09/28 09:18:03;;;;;;;3.37;2.43;;;;;;;12.06;100.00;96445.34;5113975;28;20271;-68
2022/09/28 09:20:43;;;;;;;4.20;2.40;;;;;;;12.12;100.00;96439.44;5097972;28;20228;-63
2022/09/28 09:23:17;;;;;;;2.77;2.20;;;;;;;12.15;100.00;96447.06;5097291;28;20260;-66
2022/09/28 09:25:49;;;;;;;4.30;2.50;;;;;;;12.26;100.00;96447.63;5099785;28;20645;-66
2022/09/28 09:28:42;;;;;;;3.27;2.17;;;;;;;12.32;100.00;96451.47;5096165;28;20476;-66
2022/09/28 09:31:23;;;;;;;4.27;2.90;;;;;;;12.41;100.00;96450.53;5097836;28;20231;-66
2022/09/28 09:34:12;;;;;;;2.57;1.90;;;;;;;12.47;97.54;96456.03;5113074;28;20253;-68
2022/09/28 09:36:51;;;;;;;3.00;2.07;;;;;;;12.44;95.80;96458.16;5112393;28;20275;-66
2022/09/28 09:39:36;;;;;;;2.70;2.20;;;;;;;12.31;95.08;96463.91;5111140;28;20668;-66
2022/09/28 09:42:15;;;;;;;2.60;2.23;;;;;;;12.39;97.76;96471.03;5097782;28;20632;-67
2022/09/28 09:45:01;;;;;;;4.57;2.20;;;;;;;12.54;97.91;96474.78;5096465;28;20285;-67
2022/09/28 09:47:33;;;;;;;6.27;2.47;;;;;;;12.59;97.57;96477.78;5111593;28;20336;-64
2022/09/28 09:50:05;;;;;;;3.70;1.67;;;;;;;12.57;95.62;96477.94;5113104;28;20264;-65
2022/09/28 09:52:44;;;;;;;2.93;2.00;;;;;;;12.44;97.02;96479.34;5112433;28;20309;-66
2022/09/28 09:55:16;;;;;;;2.33;2.03;;;;;;;12.38;98.49;96479.97;5096337;28;20221;-66
2022/09/28 09:57:47;;;;;;;3.87;2.47;;;;;;;12.41;100.00;96477.03;5113046;28;20388;-65
2022/09/28 10:00:17;;;;;;;4.17;2.50;;;;;;;12.52;100.00;96479.38;5112188;28;20237;-66
2022/09/28 10:02:45;;;;;;;4.23;2.47;;;;;;;12.64;99.53;96472.81;5112337;28;20610;-66
2022/09/28 10:05:21;;;;;;;4.63;2.20;;;;;;;12.77;98.66;96479.34;5105793;28;20583;-64
2022/09/28 10:07:53;;;;;;;8.67;2.90;;;;;;;12.78;99.18;96474.91;5106123;28;20240;-68
2022/09/28 10:10:24;;;;;;;3.33;2.43;;;;;;;12.60;96.80;96480.25;5101896;28;20264;-66
2022/09/28 10:12:52;;;;;;;4.07;2.43;;;;;;;12.64;98.65;96470.16;5103190;28;20274;-68
2022/09/28 10:15:25;;;;;;;3.10;2.27;;;;;;;12.57;96.06;96471.78;5098184;28;20599;-71
2022/09/28 10:17:52;;;;;;;4.43;2.60;;;;;;;12.56;95.95;96464.84;5107249;28;20260;-69
2022/09/28 10:20:19;;;;;;;3.43;2.27;;;;;;;12.59;95.97;96470.66;5109151;28;20608;-69
2022/09/28 10:22:46;;;;;;;4.73;2.70;;;;;;;12.59;92.75;96465.34;5095098;28;20239;-67
2022/09/28 10:25:14;;;;;;;2.87;2.10;;;;;;;12.58;95.01;96463.69;5093542;28;20641;-68
2022/09/28 10:27:44;;;;;;;3.53;2.23;;;;;;;12.56;94.52;96462.19;5093537;28;20287;-64
2022/09/28 10:30:17;;;;;;;3.30;2.00;;;;;;;12.49;95.94;96463.81;5108300;28;20224;-65
2022/09/28 10:32:47;;;;;;;3.30;2.60;;;;;;;12.50;97.86;96466.31;5111009;28;20532;-65
2022/09/28 10:35:22;;;;;;;2.93;2.40;;;;;;;12.46;95.61;96470.25;5093700;28;20221;-65
2022/09/28 10:37:53;;;;;;;3.33;2.10;;;;;;;12.57;93.47;96479.75;5097299;28;20578;-65
2022/09/28 10:40:38;;;;;;;5.30;2.17;;;;;;;12.47;91.62;96471.09;5097079;28;20233;-65
2022/09/28 10:43:07;;;;;;;2.70;2.10;;;;;;;12.53;93.62;96467.81;5093863;28;20229;-65
2022/09/28 10:45:36;;;;;;;2.77;2.17;;;;;;;12.60;93.35;96474.16;5096811;28;20269;-65
2022/09/28 10:48:15;;;;;;;2.87;2.30;;;;;;;12.74;92.44;96481.50;5093993;28;20265;-66
2022/09/28 10:50:42;;;;;;;2.67;2.07;;;;;;;12.82;88.99;96476.22;5094007;28;20225;-65
2022/09/28 10:53:19;;;;;;;5.87;2.80;;;;;;;12.84;88.37;96479.56;5099210;28;20261;-65
2022/09/28 10:55:58;;;;;;;2.33;1.90;;;;;;;12.87;86.65;96479.22;5111521;28;20219;-65
2022/09/28 10:58:28;;;;;;;4.40;2.33;;;;;;;12.96;89.01;96478.31;5094238;28;20233;-65
2022/09/28 11:01:01;;;;;;;4.70;2.03;;;;;;;12.99;86.89;96484.13;5097072;28;20307;-65
2022/09/28 11:03:30;;;;;;;2.70;1.93;;;;;;;13.04;86.63;96475.69;5094327;28;20249;-65
2022/09/28 11:05:59;;;;;;;4.50;2.00;;;;;;;13.00;86.51;96472.53;5095382;28;20329;-65
2022/09/28 11:08:29;;;;;;;4.23;1.87;;;;;;;12.99;86.34;96477.97;5096556;28;20307;-65
2022/09/28 11:11:04;;;;;;;3.47;1.90;;;;;;;13.01;87.48;96481.31;5094011;28;20255;-66
2022/09/28 11:13:37;;;;;;;2.60;1.80;;;;;;;13.04;88.00;96480.97;5096226;28;20673;-66
2022/09/28 11:16:04;;;;;;;2.93;2.07;;;;;;;13.11;85.78;96482.84;5097014;28;20701;-66
2022/09/28 11:18:33;;;;;;;3.73;2.00;;;;;;;13.20;86.92;96483.69;5098381;28;20261;-66
2022/09/28 11:21:13;;;;;;;3.03;1.90;;;;;;;13.16;84.12;96475.22;5096423;28;20225;-66
2022/09/28 11:23:40;;;;;;;2.60;1.90;;;;;;;13.21;85.35;96470.25;5113180;28;20263;-66
2022/09/28 11:26:11;;;;;;;2.93;1.87;;;;;;;13.21;83.13;96472.09;5101563;28;20657;-65
2022/09/28 11:28:41;;;;;;;3.50;1.60;;;;;;;13.16;80.58;96474.38;5108154;28;20240;-65
2022/09/28 11:31:10;;;;;;;2.73;1.70;;;;;;;13.11;82.37;96471.38;5111165;28;20310;-65
2022/09/28 11:33:40;;;;;;;3.27;1.80;;;;;;;13.14;82.09;96471.88;5114132;28;20229;-65
2022/09/28 11:36:29;;;;;;;1.83;1.73;;;;;;;13.16;82.59;96472.59;5102035;28;20786;-65
2022/09/28 11:39:05;;;;;;;3.93;1.57;;;;;;;13.24;81.25;96466.44;5104924;28;20309;-66
2022/09/28 11:41:53;;;;;;;2.20;1.60;;;;;;;13.43;81.89;96466.13;5112177;28;20312;-65
2022/09/28 11:44:36;;;;;;;1.87;1.40;;;;;;;13.58;80.22;96467.97;5106213;28;20308;-65
2022/09/28 11:47:18;;;;;;;3.37;1.70;;;;;;;13.69;79.82;96467.66;5102265;28;20325;-66
2022/09/28 11:49:51;;;;;;;2.07;1.40;;;;;;;13.78;79.04;96460.53;5096125;28;20229;-65
2022/09/28 11:52:24;;;;;;;2.23;1.43;;;;;;;13.73;76.78;96458.38;5099146;28;20237;-66